sensor_id;sensor_type;location;lat;lon;timestamp;P1;durP1;ratioP1;P2;durP2;ratioP2
22205;SDS011;11272;50.104;8.754;2023-03-23T00:00:59;1.80;;;0.80;;
22205;SDS011;11272;50.104;8.754;2023-03-23T00:03:26;0.50;;;0.50;;
22205;SDS011;11272;50.104;8.754;2023-03-23T00:05:54;1.87;;;0.93;;
22205;SDS011;11272;50.104;8.754;2023-03-23T00:08:24;3.17;;;1.10;;
22205;SDS011;11272;50.104;8.754;2023-03-23T00:10:52;5.50;;;0.80;;
22205;SDS011;11272;50.104;8.754;2023-03-23T00:13:25;0.83;;;0.70;;
22205;SDS011;11272;50.104;8.754;2023-03-23T00:15:51;0.97;;;0.87;;
22205;SDS011;11272;50.104;8.754;2023-03-23T00:18:17;0.90;;;0.60;;
22205;SDS011;11272;50.104;8.754;2023-03-23T00:20:51;1.53;;;0.83;;
22205;SDS011;11272;50.104;8.754;2023-03-23T00:23:19;1.37;;;0.87;;
22205;SDS011;11272;50.104;8.754;2023-03-23T00:25:46;2.30;;;0.80;;
22205;SDS011;11272;50.104;8.754;2023-03-23T00:28:18;1.67;;;0.67;;
22205;SDS011;11272;50.104;8.754;2023-03-23T00:33:22;2.43;;;1.10;;
22205;SDS011;11272;50.104;8.754;2023-03-23T00:35:52;2.37;;;0.80;;
22205;SDS011;11272;50.104;8.754;2023-03-23T00:38:20;1.00;;;0.70;;
22205;SDS011;11272;50.104;8.754;2023-03-23T00:40:46;4.57;;;0.87;;
22205;SDS011;11272;50.104;8.754;2023-03-23T00:43:18;1.23;;;0.90;;
22205;SDS011;11272;50.104;8.754;2023-03-23T00:45:45;1.47;;;0.90;;
22205;SDS011;11272;50.104;8.754;2023-03-23T00:48:20;1.43;;;0.90;;
22205;SDS011;11272;50.104;8.754;2023-03-23T00:50:47;1.73;;;0.93;;
22205;SDS011;11272;50.104;8.754;2023-03-23T00:53:14;1.77;;;0.80;;
22205;SDS011;11272;50.104;8.754;2023-03-23T00:55:41;3.47;;;1.00;;
22205;SDS011;11272;50.104;8.754;2023-03-23T00:58:08;1.37;;;0.87;;
22205;SDS011;11272;50.104;8.754;2023-03-23T01:00:36;1.70;;;1.00;;
22205;SDS011;11272;50.104;8.754;2023-03-23T01:03:02;1.63;;;0.80;;
22205;SDS011;11272;50.104;8.754;2023-03-23T01:05:32;1.67;;;0.80;;
22205;SDS011;11272;50.104;8.754;2023-03-23T01:07:59;0.60;;;0.60;;
22205;SDS011;11272;50.104;8.754;2023-03-23T01:10:25;3.27;;;1.00;;
22205;SDS011;11272;50.104;8.754;2023-03-23T01:12:53;3.57;;;1.10;;
22205;SDS011;11272;50.104;8.754;2023-03-23T01:15:21;3.93;;;1.20;;
22205;SDS011;11272;50.104;8.754;2023-03-23T01:17:47;1.77;;;0.87;;
22205;SDS011;11272;50.104;8.754;2023-03-23T01:20:14;1.20;;;1.07;;
22205;SDS011;11272;50.104;8.754;2023-03-23T01:22:40;2.00;;;0.73;;
22205;SDS011;11272;50.104;8.754;2023-03-23T01:25:08;3.13;;;1.00;;
22205;SDS011;11272;50.104;8.754;2023-03-23T01:27:35;1.83;;;0.93;;
22205;SDS011;11272;50.104;8.754;2023-03-23T01:30:01;1.80;;;0.90;;
22205;SDS011;11272;50.104;8.754;2023-03-23T01:32:28;1.77;;;0.80;;
22205;SDS011;11272;50.104;8.754;2023-03-23T01:34:54;3.53;;;1.20;;
22205;SDS011;11272;50.104;8.754;2023-03-23T01:37:20;0.93;;;0.80;;
22205;SDS011;11272;50.104;8.754;2023-03-23T01:39:52;0.50;;;0.50;;
22205;SDS011;11272;50.104;8.754;2023-03-23T01:42:21;3.67;;;0.90;;
22205;SDS011;11272;50.104;8.754;2023-03-23T01:47:17;1.80;;;0.97;;
22205;SDS011;11272;50.104;8.754;2023-03-23T01:49:49;1.73;;;1.00;;
22205;SDS011;11272;50.104;8.754;2023-03-23T01:52:21;1.57;;;0.90;;
22205;SDS011;11272;50.104;8.754;2023-03-23T01:54:51;2.17;;;1.00;;
22205;SDS011;11272;50.104;8.754;2023-03-23T01:57:21;2.13;;;0.90;;
22205;SDS011;11272;50.104;8.754;2023-03-23T01:59:52;1.37;;;1.10;;
22205;SDS011;11272;50.104;8.754;2023-03-23T02:02:25;3.70;;;1.13;;
22205;SDS011;11272;50.104;8.754;2023-03-23T02:04:54;1.63;;;0.90;;
22205;SDS011;11272;50.104;8.754;2023-03-23T02:07:26;2.93;;;1.10;;
22205;SDS011;11272;50.104;8.754;2023-03-23T02:09:55;1.47;;;0.97;;
22205;SDS011;11272;50.104;8.754;2023-03-23T02:12:21;2.23;;;0.83;;
22205;SDS011;11272;50.104;8.754;2023-03-23T02:14:48;1.70;;;0.90;;
22205;SDS011;11272;50.104;8.754;2023-03-23T02:34:32;1.27;;;0.87;;
22205;SDS011;11272;50.104;8.754;2023-03-23T02:37:08;1.23;;;0.60;;
22205;SDS011;11272;50.104;8.754;2023-03-23T02:39:49;1.33;;;0.97;;
22205;SDS011;11272;50.104;8.754;2023-03-23T02:42:38;1.40;;;1.00;;
22205;SDS011;11272;50.104;8.754;2023-03-23T02:45:07;1.10;;;0.93;;
22205;SDS011;11272;50.104;8.754;2023-03-23T02:47:36;1.37;;;0.90;;
22205;SDS011;11272;50.104;8.754;2023-03-23T02:50:04;1.60;;;0.90;;
22205;SDS011;11272;50.104;8.754;2023-03-23T02:52:36;1.20;;;0.87;;
22205;SDS011;11272;50.104;8.754;2023-03-23T02:55:04;1.17;;;0.80;;
22205;SDS011;11272;50.104;8.754;2023-03-23T02:57:34;1.83;;;1.03;;
22205;SDS011;11272;50.104;8.754;2023-03-23T03:00:04;3.47;;;1.27;;
22205;SDS011;11272;50.104;8.754;2023-03-23T03:02:36;1.53;;;0.90;;
22205;SDS011;11272;50.104;8.754;2023-03-23T03:10:57;1.93;;;0.80;;
22205;SDS011;11272;50.104;8.754;2023-03-23T03:21:41;1.73;;;1.10;;
22205;SDS011;11272;50.104;8.754;2023-03-23T03:24:12;1.60;;;1.30;;
22205;SDS011;11272;50.104;8.754;2023-03-23T03:26:42;3.80;;;1.53;;
22205;SDS011;11272;50.104;8.754;2023-03-23T03:29:25;4.10;;;1.40;;
22205;SDS011;11272;50.104;8.754;2023-03-23T03:31:56;2.83;;;1.23;;
22205;SDS011;11272;50.104;8.754;2023-03-23T03:34:25;3.17;;;1.47;;
22205;SDS011;11272;50.104;8.754;2023-03-23T03:36:53;3.00;;;1.50;;
22205;SDS011;11272;50.104;8.754;2023-03-23T03:39:24;2.33;;;1.40;;
22205;SDS011;11272;50.104;8.754;2023-03-23T03:41:51;1.57;;;1.20;;
22205;SDS011;11272;50.104;8.754;2023-03-23T03:44:18;4.40;;;1.73;;
22205;SDS011;11272;50.104;8.754;2023-03-23T03:46:44;1.77;;;1.20;;
22205;SDS011;11272;50.104;8.754;2023-03-23T03:49:10;1.83;;;1.40;;
22205;SDS011;11272;50.104;8.754;2023-03-23T03:51:41;3.13;;;1.53;;
22205;SDS011;11272;50.104;8.754;2023-03-23T03:54:13;3.03;;;1.57;;
22205;SDS011;11272;50.104;8.754;2023-03-23T03:56:41;1.80;;;1.67;;
22205;SDS011;11272;50.104;8.754;2023-03-23T03:59:26;2.10;;;1.50;;
22205;SDS011;11272;50.104;8.754;2023-03-23T04:02:11;2.10;;;1.60;;
22205;SDS011;11272;50.104;8.754;2023-03-23T04:04:40;3.90;;;1.70;;
22205;SDS011;11272;50.104;8.754;2023-03-23T04:07:07;4.83;;;2.10;;
22205;SDS011;11272;50.104;8.754;2023-03-23T04:09:39;2.40;;;1.60;;
22205;SDS011;11272;50.104;8.754;2023-03-23T04:12:05;3.63;;;1.77;;
22205;SDS011;11272;50.104;8.754;2023-03-23T04:15:07;3.53;;;1.50;;
22205;SDS011;11272;50.104;8.754;2023-03-23T04:17:35;6.53;;;1.83;;
22205;SDS011;11272;50.104;8.754;2023-03-23T04:20:01;3.97;;;2.10;;
22205;SDS011;11272;50.104;8.754;2023-03-23T04:22:32;3.10;;;1.70;;
22205;SDS011;11272;50.104;8.754;2023-03-23T04:25:00;5.77;;;1.90;;
22205;SDS011;11272;50.104;8.754;2023-03-23T04:27:31;1.93;;;1.37;;
22205;SDS011;11272;50.104;8.754;2023-03-23T04:30:00;4.97;;;1.90;;
22205;SDS011;11272;50.104;8.754;2023-03-23T04:32:38;3.83;;;1.30;;
22205;SDS011;11272;50.104;8.754;2023-03-23T04:35:10;2.10;;;1.60;;
22205;SDS011;11272;50.104;8.754;2023-03-23T04:37:45;6.30;;;1.60;;
22205;SDS011;11272;50.104;8.754;2023-03-23T04:40:14;6.23;;;1.33;;
22205;SDS011;11272;50.104;8.754;2023-03-23T04:42:46;2.80;;;1.63;;
22205;SDS011;11272;50.104;8.754;2023-03-23T04:45:25;3.47;;;1.87;;
22205;SDS011;11272;50.104;8.754;2023-03-23T04:47:52;2.97;;;1.67;;
22205;SDS011;11272;50.104;8.754;2023-03-23T04:50:23;3.07;;;1.77;;
22205;SDS011;11272;50.104;8.754;2023-03-23T04:53:07;2.83;;;1.67;;
22205;SDS011;11272;50.104;8.754;2023-03-23T04:55:34;3.43;;;1.43;;
22205;SDS011;11272;50.104;8.754;2023-03-23T04:58:02;1.73;;;1.20;;
22205;SDS011;11272;50.104;8.754;2023-03-23T05:00:35;2.30;;;1.60;;
22205;SDS011;11272;50.104;8.754;2023-03-23T05:03:02;2.67;;;1.40;;
22205;SDS011;11272;50.104;8.754;2023-03-23T05:05:30;4.30;;;1.40;;
22205;SDS011;11272;50.104;8.754;2023-03-23T05:08:00;2.63;;;1.30;;
22205;SDS011;11272;50.104;8.754;2023-03-23T05:10:29;2.97;;;1.43;;
22205;SDS011;11272;50.104;8.754;2023-03-23T05:13:02;1.47;;;1.20;;
22205;SDS011;11272;50.104;8.754;2023-03-23T05:15:27;2.40;;;1.40;;
22205;SDS011;11272;50.104;8.754;2023-03-23T05:17:53;2.47;;;1.40;;
22205;SDS011;11272;50.104;8.754;2023-03-23T05:20:21;7.67;;;1.40;;
22205;SDS011;11272;50.104;8.754;2023-03-23T05:22:49;1.77;;;1.40;;
22205;SDS011;11272;50.104;8.754;2023-03-23T05:25:19;3.83;;;1.70;;
22205;SDS011;11272;50.104;8.754;2023-03-23T05:27:50;1.77;;;1.20;;
22205;SDS011;11272;50.104;8.754;2023-03-23T05:30:32;2.13;;;1.20;;
22205;SDS011;11272;50.104;8.754;2023-03-23T05:32:59;2.30;;;1.30;;
22205;SDS011;11272;50.104;8.754;2023-03-23T05:35:45;2.03;;;1.20;;
22205;SDS011;11272;50.104;8.754;2023-03-23T05:38:17;3.83;;;1.40;;
22205;SDS011;11272;50.104;8.754;2023-03-23T05:40:43;1.37;;;1.27;;
22205;SDS011;11272;50.104;8.754;2023-03-23T05:43:19;2.10;;;1.40;;
22205;SDS011;11272;50.104;8.754;2023-03-23T05:46:02;2.40;;;1.73;;
22205;SDS011;11272;50.104;8.754;2023-03-23T05:48:28;3.13;;;1.43;;
22205;SDS011;11272;50.104;8.754;2023-03-23T05:50:54;3.10;;;1.50;;
22205;SDS011;11272;50.104;8.754;2023-03-23T05:53:22;4.23;;;1.47;;
22205;SDS011;11272;50.104;8.754;2023-03-23T05:55:49;2.80;;;1.53;;
22205;SDS011;11272;50.104;8.754;2023-03-23T05:58:24;3.43;;;1.63;;
22205;SDS011;11272;50.104;8.754;2023-03-23T06:00:50;2.60;;;1.53;;
22205;SDS011;11272;50.104;8.754;2023-03-23T06:03:21;1.53;;;1.33;;
22205;SDS011;11272;50.104;8.754;2023-03-23T06:06:11;4.40;;;1.50;;
22205;SDS011;11272;50.104;8.754;2023-03-23T06:08:48;2.37;;;1.37;;
22205;SDS011;11272;50.104;8.754;2023-03-23T06:11:56;4.27;;;1.30;;
22205;SDS011;11272;50.104;8.754;2023-03-23T06:14:56;3.10;;;1.40;;
22205;SDS011;11272;50.104;8.754;2023-03-23T06:18:02;3.40;;;1.40;;
22205;SDS011;11272;50.104;8.754;2023-03-23T06:20:57;2.73;;;1.60;;
22205;SDS011;11272;50.104;8.754;2023-03-23T06:24:34;1.67;;;1.30;;
22205;SDS011;11272;50.104;8.754;2023-03-23T06:27:32;1.67;;;1.23;;
22205;SDS011;11272;50.104;8.754;2023-03-23T06:36:54;4.83;;;2.17;;
22205;SDS011;11272;50.104;8.754;2023-03-23T06:39:30;4.10;;;1.57;;
22205;SDS011;11272;50.104;8.754;2023-03-23T06:42:08;2.20;;;1.50;;
22205;SDS011;11272;50.104;8.754;2023-03-23T06:44:38;4.10;;;1.40;;
22205;SDS011;11272;50.104;8.754;2023-03-23T06:47:03;2.23;;;1.53;;
22205;SDS011;11272;50.104;8.754;2023-03-23T06:49:34;3.33;;;1.30;;
22205;SDS011;11272;50.104;8.754;2023-03-23T06:52:10;2.20;;;1.27;;
22205;SDS011;11272;50.104;8.754;2023-03-23T06:54:36;2.37;;;1.60;;
22205;SDS011;11272;50.104;8.754;2023-03-23T06:57:04;4.03;;;1.20;;
22205;SDS011;11272;50.104;8.754;2023-03-23T06:59:31;2.97;;;1.17;;
22205;SDS011;11272;50.104;8.754;2023-03-23T07:01:57;3.47;;;1.50;;
22205;SDS011;11272;50.104;8.754;2023-03-23T07:04:23;5.10;;;1.60;;
22205;SDS011;11272;50.104;8.754;2023-03-23T07:07:02;1.77;;;1.47;;
22205;SDS011;11272;50.104;8.754;2023-03-23T07:09:32;1.60;;;1.40;;
22205;SDS011;11272;50.104;8.754;2023-03-23T07:11:57;3.63;;;1.60;;
22205;SDS011;11272;50.104;8.754;2023-03-23T07:14:37;1.90;;;1.27;;
22205;SDS011;11272;50.104;8.754;2023-03-23T07:17:03;2.20;;;1.00;;
22205;SDS011;11272;50.104;8.754;2023-03-23T07:19:31;4.13;;;1.60;;
22205;SDS011;11272;50.104;8.754;2023-03-23T07:21:57;2.10;;;1.07;;
22205;SDS011;11272;50.104;8.754;2023-03-23T07:24:24;1.80;;;1.40;;
22205;SDS011;11272;50.104;8.754;2023-03-23T07:27:08;1.97;;;1.40;;
22205;SDS011;11272;50.104;8.754;2023-03-23T07:29:37;4.10;;;1.83;;
22205;SDS011;11272;50.104;8.754;2023-03-23T07:32:12;2.33;;;1.53;;
22205;SDS011;11272;50.104;8.754;2023-03-23T07:34:38;3.23;;;1.40;;
22205;SDS011;11272;50.104;8.754;2023-03-23T07:37:13;3.17;;;1.53;;
22205;SDS011;11272;50.104;8.754;2023-03-23T07:39:45;2.50;;;1.20;;
22205;SDS011;11272;50.104;8.754;2023-03-23T07:42:15;2.30;;;1.43;;
22205;SDS011;11272;50.104;8.754;2023-03-23T07:44:59;3.33;;;1.50;;
22205;SDS011;11272;50.104;8.754;2023-03-23T07:47:41;1.43;;;1.27;;
22205;SDS011;11272;50.104;8.754;2023-03-23T07:50:09;2.77;;;1.30;;
22205;SDS011;11272;50.104;8.754;2023-03-23T07:52:56;3.73;;;1.57;;
22205;SDS011;11272;50.104;8.754;2023-03-23T07:55:38;2.27;;;1.40;;
22205;SDS011;11272;50.104;8.754;2023-03-23T07:58:28;3.23;;;1.40;;
22205;SDS011;11272;50.104;8.754;2023-03-23T08:00:55;3.80;;;1.97;;
22205;SDS011;11272;50.104;8.754;2023-03-23T08:03:31;2.87;;;1.40;;
22205;SDS011;11272;50.104;8.754;2023-03-23T08:06:26;2.07;;;1.33;;
22205;SDS011;11272;50.104;8.754;2023-03-23T08:09:13;4.00;;;1.40;;
22205;SDS011;11272;50.104;8.754;2023-03-23T08:11:58;2.50;;;1.30;;
22205;SDS011;11272;50.104;8.754;2023-03-23T08:14:56;2.83;;;1.50;;
22205;SDS011;11272;50.104;8.754;2023-03-23T08:17:42;2.60;;;1.43;;
22205;SDS011;11272;50.104;8.754;2023-03-23T08:20:32;2.70;;;1.40;;
22205;SDS011;11272;50.104;8.754;2023-03-23T08:23:16;1.87;;;1.30;;
22205;SDS011;11272;50.104;8.754;2023-03-23T08:26:13;4.53;;;1.40;;
22205;SDS011;11272;50.104;8.754;2023-03-23T08:29:15;1.60;;;1.10;;
22205;SDS011;11272;50.104;8.754;2023-03-23T08:32:00;4.20;;;1.40;;
22205;SDS011;11272;50.104;8.754;2023-03-23T08:34:40;2.57;;;1.40;;
22205;SDS011;11272;50.104;8.754;2023-03-23T08:37:25;1.43;;;0.90;;
22205;SDS011;11272;50.104;8.754;2023-03-23T08:40:12;1.60;;;1.20;;
22205;SDS011;11272;50.104;8.754;2023-03-23T08:42:39;2.33;;;1.50;;
22205;SDS011;11272;50.104;8.754;2023-03-23T08:45:27;4.97;;;1.30;;
22205;SDS011;11272;50.104;8.754;2023-03-23T08:48:14;2.67;;;1.37;;
22205;SDS011;11272;50.104;8.754;2023-03-23T08:50:59;2.00;;;1.40;;
22205;SDS011;11272;50.104;8.754;2023-03-23T08:53:31;2.03;;;1.27;;
22205;SDS011;11272;50.104;8.754;2023-03-23T08:56:17;2.50;;;1.20;;
22205;SDS011;11272;50.104;8.754;2023-03-23T08:59:01;3.57;;;1.37;;
22205;SDS011;11272;50.104;8.754;2023-03-23T09:01:44;3.00;;;1.50;;
22205;SDS011;11272;50.104;8.754;2023-03-23T09:04:30;3.83;;;1.13;;
22205;SDS011;11272;50.104;8.754;2023-03-23T09:07:14;1.93;;;1.23;;
22205;SDS011;11272;50.104;8.754;2023-03-23T09:09:40;1.93;;;1.10;;
22205;SDS011;11272;50.104;8.754;2023-03-23T09:12:06;1.87;;;1.40;;
22205;SDS011;11272;50.104;8.754;2023-03-23T09:14:34;4.17;;;1.27;;
22205;SDS011;11272;50.104;8.754;2023-03-23T09:17:03;3.40;;;1.27;;
22205;SDS011;11272;50.104;8.754;2023-03-23T09:19:30;2.37;;;1.37;;
22205;SDS011;11272;50.104;8.754;2023-03-23T09:21:58;1.67;;;1.13;;
22205;SDS011;11272;50.104;8.754;2023-03-23T09:24:24;4.70;;;1.77;;
22205;SDS011;11272;50.104;8.754;2023-03-23T09:26:50;2.73;;;1.30;;
22205;SDS011;11272;50.104;8.754;2023-03-23T09:29:16;2.90;;;1.30;;
22205;SDS011;11272;50.104;8.754;2023-03-23T09:31:42;1.93;;;1.30;;
22205;SDS011;11272;50.104;8.754;2023-03-23T09:34:08;2.17;;;1.13;;
22205;SDS011;11272;50.104;8.754;2023-03-23T09:36:37;1.83;;;1.00;;
22205;SDS011;11272;50.104;8.754;2023-03-23T09:39:04;2.13;;;1.30;;
22205;SDS011;11272;50.104;8.754;2023-03-23T09:41:53;1.63;;;1.13;;
22205;SDS011;11272;50.104;8.754;2023-03-23T09:44:33;1.97;;;1.43;;
22205;SDS011;11272;50.104;8.754;2023-03-23T09:52:43;1.30;;;0.97;;
22205;SDS011;11272;50.104;8.754;2023-03-23T09:55:17;2.07;;;1.00;;
22205;SDS011;11272;50.104;8.754;2023-03-23T10:00:56;1.17;;;1.00;;
22205;SDS011;11272;50.104;8.754;2023-03-23T10:03:52;1.30;;;1.00;;
22205;SDS011;11272;50.104;8.754;2023-03-23T10:06:42;1.80;;;1.20;;
22205;SDS011;11272;50.104;8.754;2023-03-23T10:09:11;0.80;;;0.80;;
22205;SDS011;11272;50.104;8.754;2023-03-23T10:19:48;2.27;;;1.53;;
22205;SDS011;11272;50.104;8.754;2023-03-23T10:22:37;1.57;;;0.90;;
22205;SDS011;11272;50.104;8.754;2023-03-23T10:28:19;1.13;;;0.90;;
22205;SDS011;11272;50.104;8.754;2023-03-23T10:30:48;3.13;;;1.10;;
22205;SDS011;11272;50.104;8.754;2023-03-23T10:33:25;1.53;;;1.20;;
22205;SDS011;11272;50.104;8.754;2023-03-23T10:35:59;2.73;;;1.30;;
22205;SDS011;11272;50.104;8.754;2023-03-23T10:38:40;1.30;;;1.10;;
22205;SDS011;11272;50.104;8.754;2023-03-23T10:41:15;6.20;;;1.50;;
22205;SDS011;11272;50.104;8.754;2023-03-23T10:43:43;2.27;;;1.00;;
22205;SDS011;11272;50.104;8.754;2023-03-23T10:46:56;1.50;;;1.10;;
22205;SDS011;11272;50.104;8.754;2023-03-23T10:49:17;1.10;;;1.00;;
22205;SDS011;11272;50.104;8.754;2023-03-23T10:51:47;2.57;;;1.10;;
22205;SDS011;11272;50.104;8.754;2023-03-23T10:54:26;6.20;;;1.50;;
22205;SDS011;11272;50.104;8.754;2023-03-23T10:56:57;2.03;;;1.10;;
22205;SDS011;11272;50.104;8.754;2023-03-23T10:59:29;4.33;;;1.10;;
22205;SDS011;11272;50.104;8.754;2023-03-23T11:02:00;0.87;;;0.77;;
22205;SDS011;11272;50.104;8.754;2023-03-23T11:04:28;1.23;;;1.13;;
22205;SDS011;11272;50.104;8.754;2023-03-23T11:07:00;1.27;;;1.00;;
22205;SDS011;11272;50.104;8.754;2023-03-23T11:09:35;2.00;;;1.00;;
22205;SDS011;11272;50.104;8.754;2023-03-23T11:12:15;1.73;;;1.10;;
22205;SDS011;11272;50.104;8.754;2023-03-23T11:14:42;1.30;;;1.20;;
22205;SDS011;11272;50.104;8.754;2023-03-23T11:17:23;3.40;;;0.97;;
22205;SDS011;11272;50.104;8.754;2023-03-23T11:19:51;1.27;;;0.90;;
22205;SDS011;11272;50.104;8.754;2023-03-23T11:22:25;3.53;;;1.20;;
22205;SDS011;11272;50.104;8.754;2023-03-23T11:24:54;1.83;;;1.00;;
22205;SDS011;11272;50.104;8.754;2023-03-23T11:27:23;1.63;;;0.90;;
22205;SDS011;11272;50.104;8.754;2023-03-23T11:32:27;0.80;;;0.70;;
22205;SDS011;11272;50.104;8.754;2023-03-23T11:34:57;1.73;;;1.10;;
22205;SDS011;11272;50.104;8.754;2023-03-23T11:40:10;1.60;;;1.03;;
22205;SDS011;11272;50.104;8.754;2023-03-23T11:45:31;0.87;;;0.73;;
22205;SDS011;11272;50.104;8.754;2023-03-23T11:48:09;1.10;;;0.70;;
22205;SDS011;11272;50.104;8.754;2023-03-23T11:51:04;1.97;;;0.90;;
22205;SDS011;11272;50.104;8.754;2023-03-23T11:56:34;2.00;;;0.80;;
22205;SDS011;11272;50.104;8.754;2023-03-23T11:59:02;1.20;;;0.80;;
22205;SDS011;11272;50.104;8.754;2023-03-23T12:07:03;2.43;;;0.90;;
22205;SDS011;11272;50.104;8.754;2023-03-23T12:09:53;0.70;;;0.60;;
22205;SDS011;11272;50.104;8.754;2023-03-23T12:15:25;1.90;;;0.90;;
22205;SDS011;11272;50.104;8.754;2023-03-23T12:18:02;2.00;;;0.60;;
22205;SDS011;11272;50.104;8.754;2023-03-23T12:20:54;3.70;;;0.60;;
22205;SDS011;11272;50.104;8.754;2023-03-23T12:26:43;2.40;;;0.80;;
22205;SDS011;11272;50.104;8.754;2023-03-23T12:43:19;1.20;;;0.87;;
22205;SDS011;11272;50.104;8.754;2023-03-23T12:48:43;1.20;;;0.80;;
22205;SDS011;11272;50.104;8.754;2023-03-23T12:54:07;1.07;;;0.70;;
22205;SDS011;11272;50.104;8.754;2023-03-23T12:56:40;0.63;;;0.63;;
22205;SDS011;11272;50.104;8.754;2023-03-23T13:02:19;3.53;;;0.70;;
22205;SDS011;11272;50.104;8.754;2023-03-23T13:07:32;2.20;;;0.40;;
22205;SDS011;11272;50.104;8.754;2023-03-23T13:10:19;0.83;;;0.80;;
22205;SDS011;11272;50.104;8.754;2023-03-23T13:12:48;1.07;;;0.70;;
22205;SDS011;11272;50.104;8.754;2023-03-23T13:20:43;1.27;;;0.87;;
22205;SDS011;11272;50.104;8.754;2023-03-23T13:23:28;0.97;;;0.70;;
22205;SDS011;11272;50.104;8.754;2023-03-23T13:26:08;2.10;;;0.90;;
22205;SDS011;11272;50.104;8.754;2023-03-23T13:31:22;0.80;;;0.80;;
22205;SDS011;11272;50.104;8.754;2023-03-23T13:33:57;1.10;;;0.70;;
22205;SDS011;11272;50.104;8.754;2023-03-23T13:36:30;1.10;;;0.73;;
22205;SDS011;11272;50.104;8.754;2023-03-23T13:38:57;1.23;;;0.90;;
22205;SDS011;11272;50.104;8.754;2023-03-23T13:41:25;0.83;;;0.60;;
22205;SDS011;11272;50.104;8.754;2023-03-23T13:43:52;1.97;;;1.13;;
22205;SDS011;11272;50.104;8.754;2023-03-23T13:46:30;0.77;;;0.70;;
22205;SDS011;11272;50.104;8.754;2023-03-23T13:49:13;0.97;;;0.70;;
22205;SDS011;11272;50.104;8.754;2023-03-23T13:57:19;0.93;;;0.60;;
22205;SDS011;11272;50.104;8.754;2023-03-23T13:59:59;1.77;;;0.90;;
22205;SDS011;11272;50.104;8.754;2023-03-23T14:02:38;0.90;;;0.60;;
22205;SDS011;11272;50.104;8.754;2023-03-23T14:05:10;2.77;;;0.70;;
22205;SDS011;11272;50.104;8.754;2023-03-23T14:07:54;0.83;;;0.67;;
22205;SDS011;11272;50.104;8.754;2023-03-23T14:10:34;1.53;;;0.60;;
22205;SDS011;11272;50.104;8.754;2023-03-23T14:13:02;2.73;;;0.60;;
22205;SDS011;11272;50.104;8.754;2023-03-23T14:15:30;1.07;;;0.70;;
22205;SDS011;11272;50.104;8.754;2023-03-23T14:18:03;0.50;;;0.50;;
22205;SDS011;11272;50.104;8.754;2023-03-23T14:20:31;2.00;;;0.90;;
22205;SDS011;11272;50.104;8.754;2023-03-23T14:23:00;1.10;;;0.90;;
22205;SDS011;11272;50.104;8.754;2023-03-23T14:25:27;0.80;;;0.80;;
22205;SDS011;11272;50.104;8.754;2023-03-23T14:27:56;1.00;;;0.90;;
22205;SDS011;11272;50.104;8.754;2023-03-23T14:30:26;1.20;;;0.70;;
22205;SDS011;11272;50.104;8.754;2023-03-23T14:33:04;1.70;;;0.90;;
22205;SDS011;11272;50.104;8.754;2023-03-23T14:35:33;1.73;;;1.53;;
22205;SDS011;11272;50.104;8.754;2023-03-23T14:38:01;1.87;;;0.70;;
22205;SDS011;11272;50.104;8.754;2023-03-23T14:40:27;1.27;;;0.50;;
22205;SDS011;11272;50.104;8.754;2023-03-23T14:42:55;1.40;;;0.60;;
22205;SDS011;11272;50.104;8.754;2023-03-23T14:45:22;1.10;;;0.40;;
22205;SDS011;11272;50.104;8.754;2023-03-23T14:47:50;0.50;;;0.40;;
22205;SDS011;11272;50.104;8.754;2023-03-23T14:50:35;1.13;;;0.90;;
22205;SDS011;11272;50.104;8.754;2023-03-23T14:53:13;1.27;;;0.73;;
22205;SDS011;11272;50.104;8.754;2023-03-23T14:55:59;1.30;;;0.80;;
22205;SDS011;11272;50.104;8.754;2023-03-23T14:58:28;1.17;;;0.80;;
22205;SDS011;11272;50.104;8.754;2023-03-23T15:03:34;1.53;;;0.87;;
22205;SDS011;11272;50.104;8.754;2023-03-23T15:06:04;0.93;;;0.80;;
22205;SDS011;11272;50.104;8.754;2023-03-23T15:08:38;0.70;;;0.50;;
22205;SDS011;11272;50.104;8.754;2023-03-23T15:13:36;0.90;;;0.60;;
22205;SDS011;11272;50.104;8.754;2023-03-23T15:16:11;2.03;;;0.87;;
22205;SDS011;11272;50.104;8.754;2023-03-23T15:18:40;1.37;;;0.63;;
22205;SDS011;11272;50.104;8.754;2023-03-23T15:21:23;4.93;;;2.10;;
22205;SDS011;11272;50.104;8.754;2023-03-23T15:23:53;1.73;;;0.70;;
22205;SDS011;11272;50.104;8.754;2023-03-23T15:26:33;2.37;;;0.70;;
22205;SDS011;11272;50.104;8.754;2023-03-23T15:31:41;0.80;;;0.60;;
22205;SDS011;11272;50.104;8.754;2023-03-23T15:34:10;1.70;;;0.77;;
22205;SDS011;11272;50.104;8.754;2023-03-23T15:36:40;1.17;;;0.60;;
22205;SDS011;11272;50.104;8.754;2023-03-23T15:39:05;2.87;;;0.80;;
22205;SDS011;11272;50.104;8.754;2023-03-23T15:41:44;0.73;;;0.60;;
22205;SDS011;11272;50.104;8.754;2023-03-23T15:44:12;2.07;;;0.70;;
22205;SDS011;11272;50.104;8.754;2023-03-23T15:46:49;0.90;;;0.50;;
22205;SDS011;11272;50.104;8.754;2023-03-23T15:49:17;2.60;;;0.87;;
22205;SDS011;11272;50.104;8.754;2023-03-23T15:51:43;1.20;;;0.60;;
22205;SDS011;11272;50.104;8.754;2023-03-23T15:54:13;1.47;;;0.80;;
22205;SDS011;11272;50.104;8.754;2023-03-23T15:56:42;1.07;;;0.67;;
22205;SDS011;11272;50.104;8.754;2023-03-23T15:59:08;1.33;;;0.83;;
22205;SDS011;11272;50.104;8.754;2023-03-23T16:01:34;1.60;;;0.90;;
22205;SDS011;11272;50.104;8.754;2023-03-23T16:06:39;2.83;;;0.90;;
22205;SDS011;11272;50.104;8.754;2023-03-23T16:09:10;0.90;;;0.80;;
22205;SDS011;11272;50.104;8.754;2023-03-23T16:11:39;0.80;;;0.77;;
22205;SDS011;11272;50.104;8.754;2023-03-23T16:14:06;0.97;;;0.70;;
22205;SDS011;11272;50.104;8.754;2023-03-23T16:16:40;1.10;;;0.90;;
22205;SDS011;11272;50.104;8.754;2023-03-23T16:19:10;1.10;;;0.80;;
22205;SDS011;11272;50.104;8.754;2023-03-23T16:21:37;1.37;;;0.90;;
22205;SDS011;11272;50.104;8.754;2023-03-23T16:24:03;0.87;;;0.83;;
22205;SDS011;11272;50.104;8.754;2023-03-23T16:26:28;3.00;;;1.07;;
22205;SDS011;11272;50.104;8.754;2023-03-23T16:28:54;1.53;;;0.80;;
22205;SDS011;11272;50.104;8.754;2023-03-23T16:31:20;0.80;;;0.70;;
22205;SDS011;11272;50.104;8.754;2023-03-23T16:33:46;3.00;;;0.90;;
22205;SDS011;11272;50.104;8.754;2023-03-23T16:36:12;1.20;;;1.00;;
22205;SDS011;11272;50.104;8.754;2023-03-23T16:38:38;2.57;;;0.97;;
22205;SDS011;11272;50.104;8.754;2023-03-23T16:41:04;1.53;;;0.90;;
22205;SDS011;11272;50.104;8.754;2023-03-23T16:43:30;0.93;;;0.87;;
22205;SDS011;11272;50.104;8.754;2023-03-23T16:45:56;1.63;;;1.03;;
22205;SDS011;11272;50.104;8.754;2023-03-23T16:48:22;3.60;;;0.80;;
22205;SDS011;11272;50.104;8.754;2023-03-23T16:50:48;1.13;;;1.00;;
22205;SDS011;11272;50.104;8.754;2023-03-23T16:53:13;1.77;;;0.97;;
22205;SDS011;11272;50.104;8.754;2023-03-23T16:55:40;2.87;;;1.07;;
22205;SDS011;11272;50.104;8.754;2023-03-23T16:58:08;1.43;;;1.10;;
22205;SDS011;11272;50.104;8.754;2023-03-23T17:00:33;1.40;;;1.20;;
22205;SDS011;11272;50.104;8.754;2023-03-23T17:02:59;1.13;;;1.00;;
22205;SDS011;11272;50.104;8.754;2023-03-23T17:05:26;1.53;;;1.00;;
22205;SDS011;11272;50.104;8.754;2023-03-23T17:07:53;1.33;;;0.90;;
22205;SDS011;11272;50.104;8.754;2023-03-23T17:10:20;1.63;;;0.90;;
22205;SDS011;11272;50.104;8.754;2023-03-23T17:12:47;0.60;;;0.50;;
22205;SDS011;11272;50.104;8.754;2023-03-23T17:15:12;1.70;;;0.83;;
22205;SDS011;11272;50.104;8.754;2023-03-23T17:17:38;2.03;;;1.30;;
22205;SDS011;11272;50.104;8.754;2023-03-23T17:20:04;1.23;;;1.00;;
22205;SDS011;11272;50.104;8.754;2023-03-23T17:22:31;6.20;;;1.40;;
22205;SDS011;11272;50.104;8.754;2023-03-23T17:24:57;2.43;;;1.10;;
22205;SDS011;11272;50.104;8.754;2023-03-23T17:27:23;2.50;;;1.30;;
22205;SDS011;11272;50.104;8.754;2023-03-23T17:29:50;1.20;;;1.10;;
22205;SDS011;11272;50.104;8.754;2023-03-23T17:32:16;1.83;;;1.00;;
22205;SDS011;11272;50.104;8.754;2023-03-23T17:34:42;2.70;;;0.97;;
22205;SDS011;11272;50.104;8.754;2023-03-23T17:37:08;3.30;;;1.10;;